createdAt,value
2018-05-17T00:01:11.772Z,0
2018-05-17T00:02:33.300Z,0
2018-05-17T00:03:55.098Z,0
2018-05-17T00:05:16.910Z,0
2018-05-17T00:06:39.367Z,0
2018-05-17T00:08:01.258Z,0
2018-05-17T00:09:23.049Z,0
2018-05-17T00:10:44.591Z,0
2018-05-17T00:12:06.387Z,0
2018-05-17T00:13:28.184Z,0
2018-05-17T00:14:49.998Z,0
2018-05-17T00:16:11.528Z,0
2018-05-17T00:17:33.610Z,0
2018-05-17T00:18:55.409Z,0
2018-05-17T00:20:16.962Z,0
2018-05-17T00:21:39.031Z,0
2018-05-17T00:23:00.838Z,0
2018-05-17T00:24:22.928Z,0
2018-05-17T00:25:45.008Z,0
2018-05-17T00:27:06.804Z,0
2018-05-17T00:28:28.343Z,0
2018-05-17T00:29:50.627Z,0
2018-05-17T00:31:12.850Z,0
2018-05-17T00:32:34.901Z,0
2018-05-17T00:33:56.442Z,0
2018-05-17T00:35:18.501Z,0
2018-05-17T00:36:40.059Z,0
2018-05-17T00:38:01.316Z,0
2018-05-17T00:39:23.118Z,0
2018-05-17T00:40:44.915Z,0
2018-05-17T00:42:06.718Z,0
2018-05-17T00:43:28.781Z,0
2018-05-17T00:44:50.845Z,0
2018-05-17T00:46:12.643Z,0
2018-05-17T00:47:34.440Z,0
2018-05-17T00:48:56.506Z,0
2018-05-17T00:50:18.323Z,0
2018-05-17T00:51:40.392Z,0
2018-05-17T00:53:01.920Z,0
2018-05-17T00:54:23.722Z,0
2018-05-17T00:55:45.522Z,0
2018-05-17T00:57:07.573Z,0
2018-05-17T00:58:29.624Z,0
2018-05-17T00:59:51.421Z,0
2018-05-17T01:01:12.965Z,0
2018-05-17T01:02:35.029Z,0
2018-05-17T01:03:56.824Z,0
2018-05-17T01:05:18.617Z,0
2018-05-17T01:06:40.448Z,0
2018-05-17T01:08:01.714Z,0
2018-05-17T01:09:23.775Z,0
2018-05-17T01:10:45.835Z,0
2018-05-17T01:12:07.625Z,0
2018-05-17T01:13:29.679Z,0
2018-05-17T01:14:51.221Z,0
2018-05-17T01:16:12.768Z,0
2018-05-17T01:17:34.560Z,0
2018-05-17T01:18:56.372Z,0
2018-05-17T01:20:18.421Z,0
2018-05-17T01:21:40.217Z,0
2018-05-17T01:23:02.353Z,0
2018-05-17T01:24:24.148Z,0
2018-05-17T01:25:45.956Z,0
2018-05-17T01:27:08.019Z,0
2018-05-17T01:28:30.067Z,0
2018-05-17T01:29:51.597Z,0
2018-05-17T01:31:13.672Z,0
2018-05-17T01:32:35.757Z,0
2018-05-17T01:33:57.544Z,0
2018-05-17T01:35:19.588Z,0
2018-05-17T01:36:41.661Z,0
2018-05-17T01:38:03.473Z,0
2018-05-17T01:39:25.273Z,0
2018-05-17T01:40:47.076Z,0
2018-05-17T01:42:09.209Z,0
2018-05-17T01:43:31.162Z,0
2018-05-17T01:44:52.713Z,0
2018-05-17T01:46:14.495Z,0
2018-05-17T01:47:36.553Z,0
2018-05-17T01:48:58.346Z,0
2018-05-17T01:50:19.871Z,0
2018-05-17T01:51:41.659Z,0
2018-05-17T01:53:03.479Z,0
2018-05-17T01:54:25.286Z,0
2018-05-17T01:55:47.072Z,0
2018-05-17T01:57:08.863Z,0
2018-05-17T01:58:30.667Z,0
2018-05-17T01:59:52.481Z,0
2018-05-17T02:01:14.545Z,0
2018-05-17T02:02:36.602Z,0
2018-05-17T02:03:58.136Z,0
2018-05-17T02:05:19.922Z,0
2018-05-17T02:06:41.996Z,0
2018-05-17T02:08:03.796Z,0
2018-05-17T02:09:25.333Z,0
2018-05-17T02:10:47.135Z,0
2018-05-17T02:12:09.197Z,0
2018-05-17T02:13:31.261Z,0
2018-05-17T02:14:53.063Z,0
2018-05-17T02:16:14.850Z,0
2018-05-17T02:17:36.646Z,0
2018-05-17T02:18:58.434Z,0
2018-05-17T02:20:20.235Z,0
2018-05-17T02:21:42.290Z,0
2018-05-17T02:23:04.364Z,0
2018-05-17T02:24:26.412Z,0
2018-05-17T02:25:48.206Z,0
2018-05-17T02:27:09.736Z,0
2018-05-17T02:28:31.538Z,0
2018-05-17T02:29:53.065Z,0
2018-05-17T02:31:14.601Z,0
2018-05-17T02:32:36.401Z,0
2018-05-17T02:33:58.467Z,0
2018-05-17T02:35:20.524Z,0
2018-05-17T02:36:42.588Z,0
2018-05-17T02:38:04.402Z,0
2018-05-17T02:39:26.218Z,0
2018-05-17T02:40:48.027Z,0
2018-05-17T02:42:09.561Z,0
2018-05-17T02:43:31.614Z,0
2018-05-17T02:44:53.159Z,0
2018-05-17T02:46:14.971Z,0
2018-05-17T02:47:36.797Z,0
2018-05-17T02:48:58.868Z,0
2018-05-17T02:50:20.669Z,0
2018-05-17T02:51:42.733Z,0
2018-05-17T02:53:04.902Z,0
2018-05-17T02:54:26.959Z,0
2018-05-17T02:55:48.766Z,0
2018-05-17T02:57:10.820Z,0
2018-05-17T02:58:32.383Z,0
2018-05-17T02:59:54.439Z,0
2018-05-17T03:01:16.237Z,0
2018-05-17T03:02:38.293Z,0
2018-05-17T03:04:00.363Z,0
2018-05-17T03:05:22.434Z,0
2018-05-17T03:06:44.446Z,0
2018-05-17T03:08:06.237Z,0
2018-05-17T03:09:28.035Z,0
2018-05-17T03:10:49.836Z,0
2018-05-17T03:12:11.636Z,0
2018-05-17T03:13:33.171Z,0
2018-05-17T03:14:54.979Z,0
2018-05-17T03:16:16.523Z,0
2018-05-17T03:17:38.315Z,0
2018-05-17T03:19:00.362Z,0
2018-05-17T03:20:22.108Z,0
2018-05-17T03:21:43.381Z,0
2018-05-17T03:23:04.916Z,0
2018-05-17T03:24:26.975Z,0
2018-05-17T03:25:48.768Z,5
2018-05-17T03:27:10.576Z,0
2018-05-17T03:28:32.639Z,5
2018-05-17T03:29:54.442Z,5
2018-05-17T03:31:15.724Z,5
2018-05-17T03:32:37.525Z,5
2018-05-17T03:33:59.589Z,5
2018-05-17T03:35:21.645Z,5
2018-05-17T03:36:43.439Z,5
2018-05-17T03:38:05.497Z,5
2018-05-17T03:39:27.566Z,10
2018-05-17T03:40:49.656Z,10
2018-05-17T03:42:11.457Z,10
2018-05-17T03:43:33.267Z,10
2018-05-17T03:44:55.061Z,10
2018-05-17T03:46:17.118Z,10
2018-05-17T03:47:39.176Z,15
2018-05-17T03:49:00.725Z,15
2018-05-17T03:50:22.783Z,15
2018-05-17T03:51:44.851Z,15
2018-05-17T03:53:06.854Z,15
2018-05-17T03:54:28.657Z,20
2018-05-17T03:55:50.446Z,20
2018-05-17T03:57:11.719Z,20
2018-05-17T03:58:33.766Z,20
2018-05-17T03:59:55.565Z,25
2018-05-17T04:01:17.709Z,25
2018-05-17T04:02:39.241Z,30
2018-05-17T04:04:01.033Z,30
2018-05-17T04:05:23.258Z,30
2018-05-17T04:06:45.058Z,30
2018-05-17T04:08:07.110Z,30
2018-05-17T04:09:29.375Z,30
2018-05-17T04:10:51.429Z,35
2018-05-17T04:12:13.228Z,35
2018-05-17T04:13:35.028Z,35
2018-05-17T04:14:56.829Z,40
2018-05-17T04:16:18.376Z,40
2018-05-17T04:17:39.916Z,45
2018-05-17T04:19:01.450Z,45
2018-05-17T04:20:23.257Z,45
2018-05-17T04:21:45.068Z,40
2018-05-17T04:23:07.126Z,45
2018-05-17T04:24:28.911Z,45
2018-05-17T04:25:50.458Z,40
2018-05-17T04:27:11.993Z,45
2018-05-17T04:28:34.040Z,45
2018-05-17T04:29:56.130Z,45
2018-05-17T04:31:17.942Z,50
2018-05-17T04:32:39.746Z,55
2018-05-17T04:34:01.541Z,55
2018-05-17T04:35:23.601Z,60
2018-05-17T04:36:45.384Z,65
2018-05-17T04:38:07.546Z,60
2018-05-17T04:39:29.341Z,60
2018-05-17T04:40:51.596Z,60
2018-05-17T04:42:13.411Z,60
2018-05-17T04:43:35.471Z,60
2018-05-17T04:44:57.533Z,65
2018-05-17T04:46:19.601Z,65
2018-05-17T04:47:41.402Z,60
2018-05-17T04:49:03.479Z,65
2018-05-17T04:50:25.276Z,65
2018-05-17T04:51:47.084Z,75
2018-05-17T04:53:08.359Z,80
2018-05-17T04:54:30.147Z,85
2018-05-17T04:55:52.240Z,75
2018-05-17T04:57:14.296Z,75
2018-05-17T04:58:36.363Z,75
2018-05-17T04:59:58.167Z,75
2018-05-17T05:01:19.707Z,80
2018-05-17T05:02:42.004Z,80
2018-05-17T05:04:03.689Z,80
2018-05-17T05:05:25.491Z,90
2018-05-17T05:06:47.561Z,85
2018-05-17T05:08:09.385Z,85
2018-05-17T05:09:30.941Z,90
2018-05-17T05:10:52.843Z,85
2018-05-17T05:12:14.391Z,95
2018-05-17T05:13:35.946Z,90
2018-05-17T05:14:57.739Z,95
2018-05-17T05:16:19.563Z,95
2018-05-17T05:17:41.383Z,100
2018-05-17T05:19:03.188Z,100
2018-05-17T05:20:25.252Z,105
2018-05-17T05:21:46.794Z,110
2018-05-17T05:23:08.870Z,120
2018-05-17T05:24:30.420Z,135
2018-05-17T05:25:52.485Z,125
2018-05-17T05:27:14.303Z,120
2018-05-17T05:28:35.922Z,120
2018-05-17T05:29:57.730Z,125
2018-05-17T05:31:19.265Z,135
2018-05-17T05:32:41.067Z,135
2018-05-17T05:34:02.864Z,130
2018-05-17T05:35:24.679Z,135
2018-05-17T05:36:46.487Z,140
2018-05-17T05:38:08.300Z,135
2018-05-17T05:39:30.402Z,135
2018-05-17T05:40:52.195Z,145
2018-05-17T05:42:14.483Z,140
2018-05-17T05:43:36.506Z,135
2018-05-17T05:44:58.564Z,140
2018-05-17T05:46:20.634Z,135
2018-05-17T05:47:42.443Z,145
2018-05-17T05:49:03.974Z,140
2018-05-17T05:50:26.045Z,140
2018-05-17T05:51:48.111Z,140
2018-05-17T05:53:09.909Z,150
2018-05-17T05:54:31.449Z,150
2018-05-17T05:55:53.516Z,150
2018-05-17T05:57:15.573Z,140
2018-05-17T05:58:37.380Z,155
2018-05-17T05:59:59.194Z,150
2018-05-17T06:01:20.745Z,155
2018-05-17T06:02:43.046Z,150
2018-05-17T06:04:05.122Z,155
2018-05-17T06:05:26.931Z,150
2018-05-17T06:06:49.000Z,145
2018-05-17T06:08:11.077Z,150
2018-05-17T06:09:33.161Z,160
2018-05-17T06:10:55.216Z,160
2018-05-17T06:12:17.009Z,165
2018-05-17T06:13:39.088Z,165
2018-05-17T06:15:01.162Z,160
2018-05-17T06:16:23.233Z,170
2018-05-17T06:17:45.498Z,160
2018-05-17T06:19:07.350Z,170
2018-05-17T06:20:29.170Z,185
2018-05-17T06:21:51.237Z,195
2018-05-17T06:23:13.066Z,175
2018-05-17T06:24:35.140Z,190
2018-05-17T06:25:57.210Z,185
2018-05-17T06:27:19.025Z,185
2018-05-17T06:28:40.822Z,190
2018-05-17T06:30:02.894Z,215
2018-05-17T06:31:24.436Z,200
2018-05-17T06:32:46.504Z,185
2018-05-17T06:34:08.575Z,195
2018-05-17T06:35:30.366Z,195
2018-05-17T06:36:52.468Z,200
2018-05-17T06:38:14.323Z,180
2018-05-17T06:39:35.855Z,180
2018-05-17T06:40:57.923Z,180
2018-05-17T06:42:19.725Z,195
2018-05-17T06:43:41.546Z,200
2018-05-17T06:45:03.361Z,205
2018-05-17T06:46:25.419Z,205
2018-05-17T06:47:47.215Z,210
2018-05-17T06:49:09.034Z,215
2018-05-17T06:50:30.850Z,230
2018-05-17T06:51:53.115Z,225
2018-05-17T06:53:15.207Z,225
2018-05-17T06:54:37.286Z,240
2018-05-17T06:55:59.355Z,280
2018-05-17T06:57:21.164Z,260
2018-05-17T06:58:43.227Z,240
2018-05-17T07:00:05.039Z,215
2018-05-17T07:01:27.334Z,230
2018-05-17T07:02:48.897Z,235
2018-05-17T07:04:10.989Z,260
2018-05-17T07:05:33.050Z,260
2018-05-17T07:06:55.117Z,235
2018-05-17T07:08:16.932Z,255
2018-05-17T07:09:39.014Z,250
2018-05-17T07:11:00.807Z,240
2018-05-17T07:12:22.871Z,245
2018-05-17T07:13:44.959Z,265
2018-05-17T07:15:06.793Z,290
2018-05-17T07:16:28.352Z,295
2018-05-17T07:17:50.164Z,290
2018-05-17T07:19:11.981Z,265
2018-05-17T07:20:33.509Z,250
2018-05-17T07:21:55.351Z,245
2018-05-17T07:23:17.404Z,250
2018-05-17T07:24:39.482Z,250
2018-05-17T07:26:01.027Z,260
2018-05-17T07:27:22.830Z,270
2018-05-17T07:28:44.636Z,275
2018-05-17T07:30:06.577Z,300
2018-05-17T07:31:28.683Z,325
2018-05-17T07:32:50.777Z,335
2018-05-17T07:34:12.850Z,300
2018-05-17T07:35:34.944Z,280
2018-05-17T07:36:57.022Z,290
2018-05-17T07:38:18.852Z,330
2018-05-17T07:39:40.695Z,335
2018-05-17T07:41:02.753Z,330
2018-05-17T07:42:24.809Z,340
2018-05-17T07:43:46.624Z,385
2018-05-17T07:45:08.425Z,375
2018-05-17T07:46:30.235Z,450
2018-05-17T07:47:52.052Z,385
2018-05-17T07:49:14.112Z,365
2018-05-17T07:50:35.398Z,375
2018-05-17T07:51:56.937Z,360
2018-05-17T07:53:18.746Z,365
2018-05-17T07:54:40.821Z,370
2018-05-17T07:56:02.745Z,385
2018-05-17T07:57:24.576Z,395
2018-05-17T07:58:46.375Z,385
2018-05-17T08:00:08.168Z,395
2018-05-17T08:01:30.245Z,395
2018-05-17T08:02:52.330Z,365
2018-05-17T08:04:14.162Z,360
2018-05-17T08:05:35.981Z,345
2018-05-17T08:06:58.062Z,335
2018-05-17T08:08:20.145Z,325
2018-05-17T08:09:42.429Z,315
2018-05-17T08:11:04.235Z,320
2018-05-17T08:12:26.065Z,325
2018-05-17T08:13:47.864Z,365
2018-05-17T08:15:09.658Z,335
2018-05-17T08:16:31.465Z,340
2018-05-17T08:17:53.013Z,335
2018-05-17T08:19:14.820Z,320
2018-05-17T08:20:36.371Z,335
2018-05-17T08:21:58.433Z,380
2018-05-17T08:23:20.495Z,365
2018-05-17T08:24:42.584Z,345
2018-05-17T08:26:04.663Z,375
2018-05-17T08:27:26.748Z,375
2018-05-17T08:28:48.644Z,360
2018-05-17T08:30:10.834Z,345
2018-05-17T08:31:32.299Z,345
2018-05-17T08:32:54.109Z,380
2018-05-17T08:34:16.187Z,410
2018-05-17T08:35:38.251Z,410
2018-05-17T08:37:00.767Z,405
2018-05-17T08:38:22.595Z,435
2018-05-17T08:39:44.675Z,460
2018-05-17T08:41:06.476Z,470
2018-05-17T08:42:28.548Z,425
2018-05-17T08:43:50.356Z,455
2018-05-17T08:45:12.444Z,470
2018-05-17T08:46:34.521Z,440
2018-05-17T08:47:56.339Z,445
2018-05-17T08:49:18.140Z,425
2018-05-17T08:50:40.200Z,425
2018-05-17T08:52:02.281Z,505
2018-05-17T08:53:24.087Z,480
2018-05-17T08:54:45.441Z,480
2018-05-17T08:56:07.259Z,455
2018-05-17T08:57:29.062Z,465
2018-05-17T08:58:50.896Z,490
2018-05-17T09:00:13.102Z,495
2018-05-17T09:01:34.908Z,500
2018-05-17T09:02:56.994Z,450
2018-05-17T09:04:19.077Z,420
2018-05-17T09:05:40.629Z,420
2018-05-17T09:07:02.706Z,415
2018-05-17T09:08:24.260Z,400
2018-05-17T09:09:46.104Z,425
2018-05-17T09:11:08.163Z,500
2018-05-17T09:12:30.256Z,425
2018-05-17T09:13:52.780Z,385
2018-05-17T09:15:14.506Z,385
2018-05-17T09:16:36.295Z,400
2018-05-17T09:17:58.085Z,420
2018-05-17T09:19:20.169Z,425
2018-05-17T09:20:42.449Z,460
2018-05-17T09:22:04.007Z,525
2018-05-17T09:23:26.054Z,555
2018-05-17T09:24:48.121Z,540
2018-05-17T09:26:10.201Z,535
2018-05-17T09:27:31.734Z,565
2018-05-17T09:28:53.558Z,585
2018-05-17T09:30:15.629Z,555
2018-05-17T09:31:37.705Z,550
2018-05-17T09:32:59.513Z,545
2018-05-17T09:34:21.603Z,510
2018-05-17T09:35:43.818Z,540
2018-05-17T09:37:05.912Z,565
2018-05-17T09:38:27.982Z,545
2018-05-17T09:39:49.544Z,500
2018-05-17T09:41:11.421Z,525
2018-05-17T09:42:33.223Z,505
2018-05-17T09:43:55.039Z,575
2018-05-17T09:45:17.124Z,520
2018-05-17T09:46:39.218Z,505
2018-05-17T09:48:01.355Z,510
2018-05-17T09:49:22.914Z,505
2018-05-17T09:50:44.991Z,530
2018-05-17T09:52:06.801Z,525
2018-05-17T09:53:28.632Z,490
2018-05-17T09:54:50.525Z,495
2018-05-17T09:56:12.635Z,510
2018-05-17T09:57:34.188Z,500
2018-05-17T09:58:55.752Z,490
2018-05-17T10:00:17.843Z,545
2018-05-17T10:01:39.658Z,530
2018-05-17T10:03:01.725Z,510
2018-05-17T10:04:23.807Z,515
2018-05-17T10:05:45.614Z,560
2018-05-17T10:07:07.669Z,555
2018-05-17T10:08:29.469Z,520
2018-05-17T10:09:51.560Z,485
2018-05-17T10:11:13.112Z,500
2018-05-17T10:12:35.194Z,500
2018-05-17T10:13:57.356Z,535
2018-05-17T10:15:18.379Z,500
2018-05-17T10:16:40.193Z,515
2018-05-17T10:18:01.758Z,555
2018-05-17T10:19:23.845Z,550
2018-05-17T10:20:45.647Z,545
2018-05-17T10:22:07.831Z,535
2018-05-17T10:23:30.095Z,540
2018-05-17T10:24:52.157Z,545
2018-05-17T10:26:13.970Z,510
2018-05-17T10:27:35.786Z,500
2018-05-17T10:28:57.864Z,510
2018-05-17T10:30:19.422Z,540
2018-05-17T10:31:41.243Z,560
2018-05-17T10:33:03.315Z,555
2018-05-17T10:34:25.139Z,520
2018-05-17T10:35:47.266Z,525
2018-05-17T10:37:09.069Z,560
2018-05-17T10:38:30.876Z,575
2018-05-17T10:39:52.694Z,560
2018-05-17T10:41:14.503Z,500
2018-05-17T10:42:36.348Z,460
2018-05-17T10:43:58.426Z,470
2018-05-17T10:45:20.239Z,490
2018-05-17T10:46:41.804Z,485
2018-05-17T10:48:03.603Z,545
2018-05-17T10:49:25.616Z,525
2018-05-17T10:50:47.166Z,475
2018-05-17T10:52:08.973Z,480
2018-05-17T10:53:31.051Z,515
2018-05-17T10:54:53.320Z,475
2018-05-17T10:56:15.388Z,475
2018-05-17T10:57:37.185Z,455
2018-05-17T10:58:59.000Z,440
2018-05-17T11:00:21.075Z,445
2018-05-17T11:01:42.899Z,445
2018-05-17T11:03:04.734Z,460
2018-05-17T11:04:26.536Z,490
2018-05-17T11:05:48.620Z,555
2018-05-17T11:07:10.424Z,560
2018-05-17T11:08:32.495Z,545
2018-05-17T11:09:54.302Z,575
2018-05-17T11:11:16.383Z,595
2018-05-17T11:12:38.262Z,570
2018-05-17T11:14:00.069Z,560
2018-05-17T11:15:22.082Z,520
2018-05-17T11:16:44.264Z,575
2018-05-17T11:18:06.355Z,585
2018-05-17T11:19:28.198Z,565
2018-05-17T11:20:50.297Z,555
2018-05-17T11:22:12.095Z,520
2018-05-17T11:23:34.187Z,525
2018-05-17T11:24:55.742Z,565
2018-05-17T11:26:17.941Z,555
2018-05-17T11:27:40.002Z,560
2018-05-17T11:29:02.077Z,530
2018-05-17T11:30:23.903Z,480
2018-05-17T11:31:45.713Z,450
2018-05-17T11:33:07.421Z,465
2018-05-17T11:34:29.358Z,470
2018-05-17T11:35:51.160Z,435
2018-05-17T11:37:13.262Z,435
2018-05-17T11:38:35.562Z,425
2018-05-17T11:39:57.380Z,420
2018-05-17T11:41:19.195Z,415
2018-05-17T11:42:41.288Z,415
2018-05-17T11:44:03.164Z,420
2018-05-17T11:45:24.913Z,410
2018-05-17T11:46:46.755Z,415
2018-05-17T11:48:08.559Z,435
2018-05-17T11:49:30.680Z,420
2018-05-17T11:50:52.556Z,410
2018-05-17T11:52:14.399Z,415
2018-05-17T11:53:36.479Z,390
2018-05-17T11:54:58.561Z,390
2018-05-17T11:56:20.356Z,375
2018-05-17T11:57:42.182Z,380
2018-05-17T11:59:04.243Z,430
2018-05-17T12:00:26.344Z,405
2018-05-17T12:01:48.757Z,400
2018-05-17T12:03:10.570Z,400
2018-05-17T12:04:32.666Z,395
2018-05-17T12:05:54.482Z,395
2018-05-17T12:07:16.396Z,380
2018-05-17T12:08:38.245Z,395
2018-05-17T12:10:00.066Z,390
2018-05-17T12:11:21.356Z,395
2018-05-17T12:12:43.444Z,370
2018-05-17T12:14:05.539Z,375
2018-05-17T12:15:27.644Z,375
2018-05-17T12:16:49.453Z,395
2018-05-17T12:18:11.561Z,410
2018-05-17T12:19:33.401Z,425
2018-05-17T12:20:54.985Z,430
2018-05-17T12:22:16.803Z,435
2018-05-17T12:23:38.863Z,420
2018-05-17T12:25:00.949Z,410
2018-05-17T12:26:23.047Z,385
2018-05-17T12:27:44.862Z,405
2018-05-17T12:29:06.668Z,425
2018-05-17T12:30:28.865Z,455
2018-05-17T12:31:51.319Z,425
2018-05-17T12:33:13.534Z,440
2018-05-17T12:34:35.638Z,420
2018-05-17T12:35:57.719Z,410
2018-05-17T12:37:19.980Z,375
2018-05-17T12:38:42.084Z,355
2018-05-17T12:40:04.181Z,355
2018-05-17T12:41:26.275Z,375
2018-05-17T12:42:48.248Z,400
2018-05-17T12:44:10.364Z,385
2018-05-17T12:45:31.935Z,390
2018-05-17T12:46:54.280Z,400
2018-05-17T12:48:16.394Z,430
2018-05-17T12:49:38.185Z,405
2018-05-17T12:51:00.615Z,450
2018-05-17T12:52:22.691Z,445
2018-05-17T12:53:44.263Z,395
2018-05-17T12:55:06.103Z,370
2018-05-17T12:56:27.924Z,335
2018-05-17T12:57:49.759Z,330
2018-05-17T12:59:12.132Z,330
2018-05-17T13:00:34.227Z,345
2018-05-17T13:01:56.314Z,360
2018-05-17T13:03:18.400Z,375
2018-05-17T13:04:40.225Z,415
2018-05-17T13:06:02.321Z,415
2018-05-17T13:07:24.552Z,375
2018-05-17T13:08:46.632Z,360
2018-05-17T13:10:08.470Z,375
2018-05-17T13:11:30.573Z,360
2018-05-17T13:12:52.118Z,350
2018-05-17T13:14:13.918Z,345
2018-05-17T13:15:35.209Z,360
2018-05-17T13:16:57.018Z,350
2018-05-17T13:18:19.110Z,350
2018-05-17T13:19:41.201Z,375
2018-05-17T13:21:03.291Z,365
2018-05-17T13:22:25.118Z,350
2018-05-17T13:23:46.944Z,340
2018-05-17T13:25:09.334Z,335
2018-05-17T13:26:31.428Z,320
2018-05-17T13:27:52.724Z,320
2018-05-17T13:29:14.827Z,320
2018-05-17T13:30:36.820Z,330
2018-05-17T13:31:58.904Z,335
2018-05-17T13:33:20.197Z,325
2018-05-17T13:34:41.747Z,335
2018-05-17T13:36:03.559Z,325
2018-05-17T13:37:25.960Z,345
2018-05-17T13:38:48.064Z,350
2018-05-17T13:40:10.164Z,325
2018-05-17T13:41:32.001Z,300
2018-05-17T13:42:54.168Z,310
2018-05-17T13:44:15.721Z,330
2018-05-17T13:45:37.544Z,320
2018-05-17T13:46:59.668Z,315
2018-05-17T13:48:21.871Z,320
2018-05-17T13:49:43.969Z,285
2018-05-17T13:51:06.155Z,280
2018-05-17T13:52:28.250Z,280
2018-05-17T13:53:50.364Z,280
2018-05-17T13:55:12.436Z,285
2018-05-17T13:56:34.539Z,280
2018-05-17T13:57:56.087Z,290
2018-05-17T13:59:18.170Z,290
2018-05-17T14:00:39.734Z,270
2018-05-17T14:02:01.565Z,275
2018-05-17T14:03:23.403Z,255
2018-05-17T14:04:45.218Z,250
2018-05-17T14:06:06.799Z,265
2018-05-17T14:07:28.908Z,285
2018-05-17T14:08:51.012Z,295
2018-05-17T14:10:12.548Z,300
2018-05-17T14:11:34.409Z,290
2018-05-17T14:12:56.514Z,270
2018-05-17T14:14:18.634Z,290
2018-05-17T14:15:40.951Z,280
2018-05-17T14:17:02.773Z,265
2018-05-17T14:18:24.921Z,265
2018-05-17T14:19:46.232Z,270
2018-05-17T14:21:08.316Z,270
2018-05-17T14:22:30.416Z,270
2018-05-17T14:23:52.246Z,275
2018-05-17T14:25:14.169Z,280
2018-05-17T14:26:36.011Z,275
2018-05-17T14:27:57.841Z,265
2018-05-17T14:29:19.445Z,260
2018-05-17T14:30:41.533Z,245
2018-05-17T14:32:03.297Z,230
2018-05-17T14:33:25.391Z,235
2018-05-17T14:34:47.467Z,230
2018-05-17T14:36:09.319Z,250
2018-05-17T14:37:31.407Z,250
2018-05-17T14:38:53.731Z,235
2018-05-17T14:40:15.821Z,240
2018-05-17T14:41:37.663Z,240
2018-05-17T14:42:59.248Z,260
2018-05-17T14:44:21.191Z,245
2018-05-17T14:45:43.304Z,230
2018-05-17T14:47:05.128Z,215
2018-05-17T14:48:26.950Z,210
2018-05-17T14:49:48.795Z,190
2018-05-17T14:51:10.887Z,200
2018-05-17T14:52:33.068Z,220
2018-05-17T14:53:54.889Z,205
2018-05-17T14:55:16.845Z,215
2018-05-17T14:56:39.026Z,205
2018-05-17T14:58:01.146Z,210
2018-05-17T14:59:23.246Z,190
2018-05-17T15:00:44.825Z,190
2018-05-17T15:02:06.946Z,180
2018-05-17T15:03:29.011Z,185
2018-05-17T15:04:50.844Z,175
2018-05-17T15:06:12.699Z,190
2018-05-17T15:07:34.775Z,190
2018-05-17T15:08:57.592Z,180
2018-05-17T15:10:19.055Z,170
2018-05-17T15:11:41.353Z,180
2018-05-17T15:13:03.429Z,165
2018-05-17T15:14:25.291Z,160
2018-05-17T15:15:47.375Z,145
2018-05-17T15:17:09.538Z,140
2018-05-17T15:18:31.665Z,155
2018-05-17T15:19:53.763Z,160
2018-05-17T15:21:15.608Z,185
2018-05-17T15:22:37.706Z,210
2018-05-17T15:23:59.550Z,240
2018-05-17T15:25:21.376Z,240
2018-05-17T15:26:43.513Z,195
2018-05-17T15:28:05.606Z,175
2018-05-17T15:29:27.686Z,180
2018-05-17T15:30:49.495Z,195
2018-05-17T15:32:10.803Z,180
2018-05-17T15:33:32.669Z,200
2018-05-17T15:34:54.475Z,200
2018-05-17T15:36:16.677Z,220
2018-05-17T15:37:38.259Z,225
2018-05-17T15:39:00.112Z,215
2018-05-17T15:40:22.286Z,210
2018-05-17T15:41:44.175Z,225
2018-05-17T15:43:05.974Z,220
2018-05-17T15:44:28.062Z,230
2018-05-17T15:45:50.131Z,245
2018-05-17T15:47:11.967Z,230
2018-05-17T15:48:34.542Z,215
2018-05-17T15:49:56.096Z,200
2018-05-17T15:51:18.196Z,175
2018-05-17T15:52:40.288Z,170
2018-05-17T15:54:02.386Z,200
2018-05-17T15:55:24.474Z,230
2018-05-17T15:56:46.031Z,220
2018-05-17T15:58:08.132Z,190
2018-05-17T15:59:29.959Z,180
2018-05-17T16:00:51.857Z,215
2018-05-17T16:02:13.959Z,210
2018-05-17T16:03:36.037Z,225
2018-05-17T16:04:57.928Z,220
2018-05-17T16:06:20.139Z,200
2018-05-17T16:07:42.666Z,185
2018-05-17T16:09:05.020Z,180
2018-05-17T16:10:27.390Z,170
2018-05-17T16:11:49.233Z,175
2018-05-17T16:13:11.069Z,165
2018-05-17T16:14:33.220Z,160
2018-05-17T16:15:55.430Z,150
2018-05-17T16:17:17.526Z,155
2018-05-17T16:18:39.339Z,160
2018-05-17T16:20:01.430Z,170
2018-05-17T16:21:23.551Z,160
2018-05-17T16:22:45.634Z,160
2018-05-17T16:24:07.738Z,160
2018-05-17T16:25:29.851Z,155
2018-05-17T16:26:51.950Z,155
2018-05-17T16:28:14.072Z,165
2018-05-17T16:29:36.173Z,170
2018-05-17T16:30:58.266Z,165
2018-05-17T16:32:20.382Z,165
2018-05-17T16:33:42.511Z,160
2018-05-17T16:35:04.652Z,160
2018-05-17T16:36:26.487Z,160
2018-05-17T16:37:48.579Z,155
2018-05-17T16:39:10.431Z,150
2018-05-17T16:40:32.539Z,145
2018-05-17T16:41:54.412Z,145
2018-05-17T16:43:16.260Z,140
2018-05-17T16:44:38.343Z,150
2018-05-17T16:46:00.442Z,145
2018-05-17T16:47:21.738Z,135
2018-05-17T16:48:43.888Z,125
2018-05-17T16:50:06.009Z,135
2018-05-17T16:51:27.557Z,140
2018-05-17T16:52:50.139Z,130
2018-05-17T16:54:12.659Z,125
2018-05-17T16:55:34.501Z,120
2018-05-17T16:56:56.342Z,130
2018-05-17T16:58:18.184Z,150
2018-05-17T16:59:40.260Z,150
2018-05-17T17:01:02.201Z,130
2018-05-17T17:02:24.019Z,110
2018-05-17T17:03:46.123Z,100
2018-05-17T17:05:08.603Z,110
2018-05-17T17:06:30.597Z,125
2018-05-17T17:07:52.442Z,110
2018-05-17T17:09:14.550Z,105
2018-05-17T17:10:36.645Z,100
2018-05-17T17:11:58.790Z,100
2018-05-17T17:13:20.930Z,115
2018-05-17T17:14:43.022Z,115
2018-05-17T17:16:05.188Z,120
2018-05-17T17:17:26.765Z,125
2018-05-17T17:18:48.905Z,125
2018-05-17T17:20:10.993Z,145
2018-05-17T17:21:33.090Z,145
2018-05-17T17:22:55.201Z,150
2018-05-17T17:24:17.196Z,145
2018-05-17T17:25:39.059Z,150
2018-05-17T17:27:00.905Z,135
2018-05-17T17:28:23.031Z,120
2018-05-17T17:29:44.898Z,120
2018-05-17T17:31:07.349Z,120
2018-05-17T17:32:29.223Z,125
2018-05-17T17:33:51.106Z,130
2018-05-17T17:35:13.222Z,120
2018-05-17T17:36:35.294Z,115
2018-05-17T17:37:56.567Z,115
2018-05-17T17:39:18.444Z,110
2018-05-17T17:40:40.580Z,100
2018-05-17T17:42:02.696Z,95
2018-05-17T17:43:24.897Z,100
2018-05-17T17:44:46.760Z,90
2018-05-17T17:46:08.902Z,85
2018-05-17T17:47:30.762Z,95
2018-05-17T17:48:52.885Z,95
2018-05-17T17:50:14.807Z,90
2018-05-17T17:51:36.933Z,90
2018-05-17T17:52:59.037Z,85
2018-05-17T17:54:21.161Z,75
2018-05-17T17:55:43.286Z,65
2018-05-17T17:57:05.407Z,60
2018-05-17T17:58:27.290Z,50
2018-05-17T17:59:49.192Z,50
2018-05-17T18:01:11.300Z,50
2018-05-17T18:02:33.174Z,50
2018-05-17T18:03:55.267Z,50
2018-05-17T18:05:17.700Z,45
2018-05-17T18:06:39.960Z,45
2018-05-17T18:08:02.085Z,45
2018-05-17T18:09:24.216Z,50
2018-05-17T18:10:46.057Z,50
2018-05-17T18:12:08.152Z,45
2018-05-17T18:13:30.022Z,45
2018-05-17T18:14:52.134Z,45
2018-05-17T18:16:14.286Z,45
2018-05-17T18:17:36.182Z,45
2018-05-17T18:18:58.026Z,40
2018-05-17T18:20:20.164Z,35
2018-05-17T18:21:42.019Z,25
2018-05-17T18:23:03.858Z,25
2018-05-17T18:24:25.807Z,25
2018-05-17T18:25:47.892Z,25
2018-05-17T18:27:10.021Z,25
2018-05-17T18:28:32.168Z,25
2018-05-17T18:29:54.287Z,20
2018-05-17T18:31:16.440Z,20
2018-05-17T18:32:38.605Z,20
2018-05-17T18:34:00.592Z,20
2018-05-17T18:35:22.491Z,20
2018-05-17T18:36:44.643Z,15
2018-05-17T18:38:06.793Z,15
2018-05-17T18:39:29.184Z,15
2018-05-17T18:40:51.309Z,15
2018-05-17T18:42:13.515Z,15
2018-05-17T18:43:35.782Z,15
2018-05-17T18:44:57.791Z,15
2018-05-17T18:46:20.052Z,10
2018-05-17T18:47:42.282Z,10
2018-05-17T18:49:04.574Z,10
2018-05-17T18:50:26.119Z,10
2018-05-17T18:51:48.004Z,10
2018-05-17T18:53:10.160Z,10
2018-05-17T18:54:32.451Z,10
2018-05-17T18:55:54.695Z,10
2018-05-17T18:57:17.153Z,10
2018-05-17T18:58:38.514Z,10
2018-05-17T19:00:00.655Z,10
2018-05-17T19:01:22.802Z,10
2018-05-17T19:02:45.041Z,10
2018-05-17T19:04:07.230Z,5
2018-05-17T19:05:29.154Z,5
2018-05-17T19:06:51.281Z,5
2018-05-17T19:08:13.442Z,5
2018-05-17T19:09:35.634Z,5
2018-05-17T19:10:57.795Z,5